Time;durP1;ratioP1;P1;durP2;ratioP2;P2;SDS_P1;SDS_P2;PMS_P1;PMS_P2;Temp;Humidity;BMP_temperature;BMP_pressure;BME280_temperature;BME280_humidity;BME280_pressure;Samples;Min_cycle;Max_cycle;Signal;HPM_P1;HPM_P2
2021/11/23 00:02:11;;;;;;;4.65;2.65;;;;;;;2.99;67.54;98226.53;5015119;28;20033;-82
2021/11/23 00:04:36;;;;;;;4.82;2.53;;;;;;;2.78;68.03;98230.50;4996450;28;20389;-81
2021/11/23 00:07:02;;;;;;;5.95;2.40;;;;;;;2.91;68.21;98229.13;5015472;28;20400;-81
2021/11/23 00:09:27;;;;;;;3.83;2.42;;;;;;;2.96;68.19;98232.00;5036535;28;20174;-81
2021/11/23 00:11:52;;;;;;;3.25;2.20;;;;;;;2.89;68.12;98236.22;5053118;28;20636;-81
2021/11/23 00:14:18;;;;;;;5.47;2.75;;;;;;;2.98;67.88;98243.75;5036337;28;20047;-81
2021/11/23 00:16:43;;;;;;;5.93;3.33;;;;;;;2.99;67.45;98254.81;5018165;28;20029;-81
2021/11/23 00:19:09;;;;;;;6.22;3.10;;;;;;;2.90;67.86;98253.28;5015101;28;20103;-80
2021/11/23 00:21:34;;;;;;;3.70;2.42;;;;;;;3.06;67.37;98250.59;5017138;28;20036;-79
2021/11/23 00:24:00;;;;;;;5.72;2.85;;;;;;;3.22;66.83;98252.28;5016276;28;20037;-81
2021/11/23 00:26:25;;;;;;;5.00;3.35;;;;;;;2.98;67.30;98250.63;5016074;28;20671;-80
2021/11/23 00:28:51;;;;;;;5.05;2.88;;;;;;;2.86;68.02;98246.84;5000417;28;20043;-81
2021/11/23 00:31:16;;;;;;;4.00;2.90;;;;;;;2.90;67.31;98250.69;5012675;28;20870;-79
2021/11/23 00:33:42;;;;;;;5.82;2.85;;;;;;;2.89;68.00;98247.31;4997082;28;20477;-81
2021/11/23 00:36:09;;;;;;;6.68;2.97;;;;;;;2.93;67.40;98251.16;5029632;28;20033;-81
2021/11/23 00:38:35;;;;;;;4.30;2.63;;;;;;;2.80;68.54;98254.25;4997301;28;20120;-81
2021/11/23 00:41:00;;;;;;;4.50;2.85;;;;;;;2.51;69.24;98248.94;5012868;28;20120;-80
2021/11/23 00:43:26;;;;;;;4.18;2.90;;;;;;;2.65;68.72;98244.84;5029179;28;20064;-81
2021/11/23 00:45:51;;;;;;;5.63;3.10;;;;;;;2.59;68.82;98251.47;5032363;28;20116;-79
2021/11/23 00:48:17;;;;;;;5.50;3.45;;;;;;;2.59;68.60;98247.13;4999561;28;20369;-81
2021/11/23 00:50:42;;;;;;;4.10;2.97;;;;;;;2.56;69.07;98250.03;5032801;28;20029;-80
2021/11/23 00:53:08;;;;;;;5.63;2.88;;;;;;;2.86;68.29;98246.84;5000275;28;20032;-81
2021/11/23 00:55:34;;;;;;;4.88;2.90;;;;;;;2.85;68.32;98246.06;4997830;28;20031;-81
2021/11/23 00:58:00;;;;;;;6.75;3.53;;;;;;;2.83;67.80;98252.31;5013860;28;20858;-81
2021/11/23 01:00:25;;;;;;;5.97;3.53;;;;;;;2.80;68.07;98254.25;5029234;28;20025;-80
2021/11/23 01:02:52;;;;;;;6.18;3.45;;;;;;;2.84;67.61;98256.50;5026347;28;20032;-80
2021/11/23 01:05:18;;;;;;;7.88;3.78;;;;;;;2.83;67.35;98255.72;5015453;28;20090;-81
2021/11/23 01:07:43;;;;;;;6.75;3.50;;;;;;;2.80;67.87;98263.75;5016401;28;20033;-79
2021/11/23 01:10:09;;;;;;;8.70;3.92;;;;;;;2.57;69.15;98255.97;5015203;28;20639;-81
2021/11/23 01:12:36;;;;;;;5.30;3.03;;;;;;;2.58;68.83;98260.94;5015258;28;20064;-79
2021/11/23 01:15:06;;;;;;;5.88;3.63;;;;;;;2.66;68.28;98262.69;5011236;28;20021;-81
2021/11/23 01:17:31;;;;;;;6.72;3.47;;;;;;;2.75;68.28;98259.09;5032683;28;20036;-81
2021/11/23 01:19:57;;;;;;;6.03;3.25;;;;;;;2.74;68.14;98256.69;5032853;28;20477;-81
2021/11/23 01:22:22;;;;;;;7.07;3.17;;;;;;;2.67;68.53;98258.34;5048644;28;20102;-80
2021/11/23 01:24:48;;;;;;;5.60;3.50;;;;;;;2.61;68.78;98255.47;5015560;28;20464;-80
2021/11/23 01:27:13;;;;;;;6.47;3.35;;;;;;;2.71;69.00;98260.44;5032219;28;20606;-81
2021/11/23 01:29:38;;;;;;;7.80;4.03;;;;;;;2.63;68.65;98258.66;5015741;28;20037;-81
2021/11/23 01:32:04;;;;;;;6.32;3.13;;;;;;;2.70;68.21;98253.66;4990944;28;20120;-81
2021/11/23 01:34:30;;;;;;;6.03;3.58;;;;;;;2.67;68.39;98248.84;5027700;28;20386;-81
2021/11/23 01:36:55;;;;;;;6.00;2.90;;;;;;;2.79;68.20;98254.44;4999378;28;20065;-81
2021/11/23 01:39:22;;;;;;;7.00;3.50;;;;;;;2.79;67.84;98254.44;4998830;28;20119;-81
2021/11/23 01:41:47;;;;;;;6.18;2.90;;;;;;;2.81;67.71;98249.91;5015906;28;20036;-81
2021/11/23 01:44:13;;;;;;;6.57;3.13;;;;;;;2.77;67.88;98253.81;5015367;28;20477;-80
2021/11/23 01:46:38;;;;;;;7.25;3.58;;;;;;;2.46;69.03;98246.06;5031961;28;20078;-80
2021/11/23 01:49:04;;;;;;;5.70;3.10;;;;;;;2.42;69.34;98259.22;5015639;28;20037;-80
2021/11/23 01:51:29;;;;;;;6.65;3.55;;;;;;;2.40;69.41;98258.59;5032184;28;20022;-81
2021/11/23 01:53:55;;;;;;;6.03;3.50;;;;;;;2.16;69.83;98261.19;4999303;28;20041;-81
2021/11/23 01:56:21;;;;;;;6.63;3.97;;;;;;;2.15;69.80;98250.13;5005492;28;20382;-80
2021/11/23 01:58:46;;;;;;;6.30;3.63;;;;;;;2.33;69.62;98259.41;4999324;28;20036;-80
2021/11/23 02:01:12;;;;;;;8.55;3.90;;;;;;;2.29;69.94;98263.28;5015937;28;20410;-82
2021/11/23 02:03:39;;;;;;;8.27;3.63;;;;;;;2.14;69.41;98252.88;5016535;28;20481;-80
2021/11/23 02:06:06;;;;;;;6.28;3.75;;;;;;;2.16;70.69;98261.19;4999671;28;20492;-80
2021/11/23 02:08:32;;;;;;;7.85;3.78;;;;;;;2.20;70.55;98257.34;5018805;28;20035;-82
2021/11/23 02:10:57;;;;;;;7.15;4.53;;;;;;;1.97;71.15;98270.88;5019440;28;20032;-80
2021/11/23 02:13:23;;;;;;;7.70;4.25;;;;;;;2.23;70.04;98254.47;5047203;28;20025;-80
2021/11/23 02:15:49;;;;;;;8.70;4.75;;;;;;;2.04;70.33;98261.56;4999969;28;20029;-80
2021/11/23 02:18:17;;;;;;;7.72;4.43;;;;;;;2.16;70.27;98256.06;5015868;28;20025;-82
2021/11/23 02:20:43;;;;;;;6.95;4.22;;;;;;;2.33;69.26;98255.09;5036598;28;20028;-81
2021/11/23 02:23:08;;;;;;;7.85;4.10;;;;;;;2.21;69.65;98253.81;5020364;28;20029;-81
2021/11/23 02:25:34;;;;;;;7.18;4.25;;;;;;;2.57;68.60;98251.63;5020183;28;20035;-82
2021/11/23 02:28:00;;;;;;;6.85;3.83;;;;;;;2.52;68.97;98255.66;5020656;28;20033;-82
2021/11/23 02:30:25;;;;;;;6.95;4.00;;;;;;;2.41;68.86;98249.91;5020409;28;20041;-81
2021/11/23 02:32:54;;;;;;;7.82;3.80;;;;;;;2.56;68.80;98249.22;5020664;28;20025;-82
2021/11/23 02:35:21;;;;;;;7.25;4.30;;;;;;;2.65;68.51;98255.16;5037372;28;20033;-82
2021/11/23 02:37:49;;;;;;;10.75;4.38;;;;;;;2.58;68.18;98255.00;5036923;28;20067;-82
2021/11/23 02:40:16;;;;;;;9.75;4.32;;;;;;;2.85;67.28;98260.69;5019972;28;20128;-81
2021/11/23 02:42:41;;;;;;;7.68;4.20;;;;;;;2.84;67.67;98259.88;5019936;28;20090;-81
2021/11/23 02:45:07;;;;;;;11.93;6.13;;;;;;;2.76;67.44;98252.19;5019601;28;20120;-81
2021/11/23 02:47:34;;;;;;;11.50;6.32;;;;;;;2.79;66.92;98257.00;5003965;28;20108;-82
2021/11/23 02:50:00;;;;;;;9.38;4.80;;;;;;;2.72;67.85;98264.59;4994931;28;20029;-82
2021/11/23 02:52:25;;;;;;;8.60;3.67;;;;;;;2.55;68.55;98252.75;5000406;28;20037;-81
2021/11/23 02:54:59;;;;;;;7.55;4.35;;;;;;;2.78;67.54;98261.34;4984558;28;20065;-80
2021/11/23 02:57:29;;;;;;;8.82;4.28;;;;;;;2.82;66.75;98264.38;5036114;28;20028;-80
2021/11/23 02:59:55;;;;;;;7.25;4.18;;;;;;;2.94;66.61;98272.53;5036101;28;20373;-81
2021/11/23 03:02:21;;;;;;;7.15;4.15;;;;;;;2.87;66.94;98269.84;5035985;28;20031;-81
2021/11/23 03:04:50;;;;;;;7.47;4.05;;;;;;;2.89;66.70;98273.03;5003032;28;20029;-81
2021/11/23 03:07:15;;;;;;;7.13;3.67;;;;;;;2.92;67.28;98266.75;5035576;28;20029;-81
2021/11/23 03:09:41;;;;;;;6.07;3.40;;;;;;;2.89;66.58;98272.25;5003115;28;20036;-80
2021/11/23 03:12:19;;;;;;;7.32;3.97;;;;;;;2.62;67.18;98258.84;5019341;28;20032;-81
2021/11/23 03:14:45;;;;;;;5.10;3.30;;;;;;;2.65;67.67;98252.56;5002758;28;20750;-81
2021/11/23 03:17:13;;;;;;;5.13;3.67;;;;;;;2.79;67.10;98255.25;5003205;28;20515;-81
2021/11/23 03:19:40;;;;;;;6.20;3.55;;;;;;;2.79;67.05;98254.44;5035360;28;20485;-81
2021/11/23 03:22:06;;;;;;;5.97;3.80;;;;;;;2.76;67.20;98247.03;5035316;28;20021;-81
2021/11/23 03:24:31;;;;;;;7.13;3.90;;;;;;;2.60;67.76;98256.44;5018952;28;20025;-80
2021/11/23 03:26:57;;;;;;;6.93;3.90;;;;;;;2.57;67.71;98253.38;5018778;28;20071;-82
2021/11/23 03:29:22;;;;;;;6.85;3.45;;;;;;;2.60;67.71;98253.88;5018982;28;20393;-81
2021/11/23 03:31:48;;;;;;;5.60;3.20;;;;;;;2.81;67.53;98258.44;5018812;28;20035;-81
2021/11/23 03:34:16;;;;;;;7.93;3.95;;;;;;;2.88;66.57;98250.03;5033879;28;20567;-81
2021/11/23 03:36:42;;;;;;;7.38;3.80;;;;;;;2.85;67.19;98255.56;5019139;28;20059;-81
2021/11/23 03:39:08;;;;;;;5.88;3.95;;;;;;;2.87;66.49;98256.19;4999269;28;20033;-81
2021/11/23 03:41:34;;;;;;;6.18;3.28;;;;;;;2.89;66.71;98249.88;4982730;28;20029;-81
2021/11/23 03:44:00;;;;;;;7.60;3.78;;;;;;;3.03;66.22;98252.72;4999148;28;20032;-81
2021/11/23 03:46:25;;;;;;;6.45;3.00;;;;;;;2.95;66.35;98248.44;5010311;28;20025;-81
2021/11/23 03:48:52;;;;;;;7.10;3.80;;;;;;;2.85;66.15;98243.47;5001713;28;20083;-81
2021/11/23 03:51:19;;;;;;;5.50;3.33;;;;;;;2.95;66.29;98238.94;5035267;28;20508;-80
2021/11/23 03:53:44;;;;;;;6.38;3.60;;;;;;;2.89;66.03;98236.22;5018838;28;20036;-80
2021/11/23 03:56:11;;;;;;;5.68;3.03;;;;;;;2.90;66.25;98245.56;5031223;28;20489;-81
2021/11/23 03:58:37;;;;;;;6.70;3.30;;;;;;;2.72;66.55;98241.44;5018266;28;20066;-80
2021/11/23 04:01:02;;;;;;;6.10;4.05;;;;;;;2.73;66.78;98237.91;5002434;28;20120;-80
2021/11/23 04:03:28;;;;;;;5.85;3.53;;;;;;;2.53;67.08;98242.63;5002004;28;20033;-81
2021/11/23 04:05:53;;;;;;;5.53;3.75;;;;;;;2.69;66.95;98233.25;5052978;28;20033;-81
2021/11/23 04:08:20;;;;;;;5.55;2.83;;;;;;;2.73;66.97;98237.13;5031165;28;20021;-80
2021/11/23 04:10:46;;;;;;;4.75;2.78;;;;;;;2.74;66.45;98226.66;5010140;28;20029;-81
2021/11/23 04:13:11;;;;;;;6.03;3.25;;;;;;;2.65;66.72;98217.38;5002303;28;20079;-80
2021/11/23 04:15:37;;;;;;;7.25;3.05;;;;;;;2.68;66.75;98229.91;4998356;28;20021;-80
2021/11/23 04:18:02;;;;;;;6.13;3.05;;;;;;;2.79;66.09;98226.97;4998512;28;20366;-81
2021/11/23 04:20:28;;;;;;;5.43;3.20;;;;;;;2.62;66.62;98221.09;5030926;28;20031;-81
2021/11/23 04:22:53;;;;;;;6.35;2.88;;;;;;;2.51;67.34;98218.09;5033735;28;20651;-82
2021/11/23 04:25:19;;;;;;;5.13;2.80;;;;;;;2.58;66.75;98219.00;5017963;28;20079;-81
2021/11/23 04:27:44;;;;;;;6.47;3.00;;;;;;;2.44;66.81;98223.88;5034536;28;20222;-81
2021/11/23 04:30:12;;;;;;;5.45;3.17;;;;;;;2.44;67.17;98221.31;5018335;28;20397;-80
2021/11/23 04:32:38;;;;;;;6.70;3.63;;;;;;;2.50;67.07;98219.84;5034247;28;20029;-81
2021/11/23 04:35:05;;;;;;;5.90;3.20;;;;;;;2.47;67.14;98222.75;5017338;28;20032;-80
2021/11/23 04:37:30;;;;;;;6.50;2.92;;;;;;;2.44;67.25;98229.00;5001012;28;20495;-81
2021/11/23 04:39:56;;;;;;;5.53;3.45;;;;;;;2.50;67.25;98231.88;5017479;28;20125;-81
2021/11/23 04:42:21;;;;;;;6.35;3.53;;;;;;;2.56;66.86;98226.88;5018106;28;20033;-80
2021/11/23 04:44:47;;;;;;;7.22;3.03;;;;;;;2.35;67.63;98234.38;5017327;28;20017;-80
2021/11/23 04:47:12;;;;;;;6.90;3.53;;;;;;;2.39;67.59;98231.28;5017150;28;20082;-80
2021/11/23 04:49:38;;;;;;;6.57;4.00;;;;;;;2.23;68.22;98232.13;5000823;28;20040;-81
2021/11/23 04:52:03;;;;;;;8.15;3.17;;;;;;;2.24;68.22;98238.06;5017237;28;20036;-80
2021/11/23 04:54:29;;;;;;;5.70;3.13;;;;;;;2.19;68.10;98236.00;5015306;28;20029;-81
2021/11/23 04:56:54;;;;;;;7.25;3.17;;;;;;;2.26;67.95;98243.84;4997537;28;20052;-80
2021/11/23 04:59:20;;;;;;;7.32;3.08;;;;;;;2.26;67.71;98251.53;4997393;28;20819;-81
2021/11/23 05:01:45;;;;;;;6.93;3.08;;;;;;;2.11;68.66;98253.19;5032344;28;20039;-80
2021/11/23 05:04:11;;;;;;;7.10;3.67;;;;;;;2.15;68.13;98255.28;5016797;28;20350;-80
2021/11/23 05:06:36;;;;;;;9.77;3.72;;;;;;;2.18;68.21;98249.03;5017176;28;20027;-81
2021/11/23 05:09:02;;;;;;;7.03;3.70;;;;;;;2.29;67.95;98251.22;5000312;28;20055;-79
2021/11/23 05:11:28;;;;;;;5.65;3.20;;;;;;;2.18;68.04;98249.81;5017321;28;20033;-81
2021/11/23 05:13:54;;;;;;;9.52;3.85;;;;;;;2.31;67.75;98251.84;5001222;28;20025;-80
2021/11/23 05:16:19;;;;;;;5.70;3.13;;;;;;;2.42;67.37;98255.88;5017267;28;20036;-81
2021/11/23 05:18:45;;;;;;;7.50;3.83;;;;;;;2.40;67.26;98255.22;5033373;28;20028;-80
2021/11/23 05:21:11;;;;;;;8.15;3.40;;;;;;;2.57;66.85;98255.97;4998062;28;20116;-81
2021/11/23 05:23:36;;;;;;;5.97;3.30;;;;;;;2.52;67.02;98259.03;5010227;28;20112;-81
2021/11/23 05:26:02;;;;;;;6.65;3.88;;;;;;;2.41;67.50;98257.59;5017369;28;20465;-81
2021/11/23 05:28:28;;;;;;;11.55;3.83;;;;;;;2.41;67.06;98255.03;5000388;28;20029;-80
2021/11/23 05:30:53;;;;;;;6.78;3.85;;;;;;;2.24;67.28;98263.75;5007347;28;20112;-80
2021/11/23 05:33:19;;;;;;;7.03;3.50;;;;;;;2.30;67.35;98257.19;5013818;28;20493;-79
2021/11/23 05:35:49;;;;;;;7.63;3.72;;;;;;;2.32;67.53;98266.31;4981073;28;20064;-80
2021/11/23 05:38:15;;;;;;;7.07;3.83;;;;;;;2.19;67.88;98266.84;5014275;28;20493;-80
2021/11/23 05:40:41;;;;;;;7.43;3.92;;;;;;;2.38;67.23;98270.81;5013379;28;20106;-80
2021/11/23 05:43:06;;;;;;;7.15;3.67;;;;;;;2.37;67.34;98273.53;5000918;28;20539;-80
2021/11/23 05:45:35;;;;;;;8.25;3.83;;;;;;;2.25;67.29;98270.50;5033077;28;20051;-80
2021/11/23 05:48:01;;;;;;;6.40;3.38;;;;;;;2.18;67.61;98274.72;5033118;28;20060;-81
2021/11/23 05:50:26;;;;;;;6.72;3.50;;;;;;;2.16;67.75;98266.34;5016860;28;20615;-81
2021/11/23 05:52:52;;;;;;;6.75;3.67;;;;;;;2.10;68.21;98287.56;5033140;28;20033;-81
2021/11/23 05:55:17;;;;;;;6.15;3.63;;;;;;;2.19;67.99;98286.56;4999020;28;20049;-81
2021/11/23 05:57:42;;;;;;;10.20;4.53;;;;;;;1.97;68.45;98282.91;5018186;28;20116;-80
2021/11/23 06:00:09;;;;;;;7.22;3.85;;;;;;;2.28;67.68;98288.19;5000168;28;20028;-81
2021/11/23 06:02:34;;;;;;;7.28;3.67;;;;;;;2.23;67.47;98285.31;4999590;28;20036;-80
2021/11/23 06:05:02;;;;;;;6.30;3.55;;;;;;;2.21;67.65;98297.47;4999302;28;20033;-80
2021/11/23 06:07:28;;;;;;;6.38;3.30;;;;;;;2.18;67.70;98305.53;5016141;28;20028;-80
2021/11/23 06:09:53;;;;;;;8.45;3.67;;;;;;;2.32;67.38;98299.72;5013110;28;20416;-80
2021/11/23 06:12:19;;;;;;;6.80;4.22;;;;;;;2.25;67.75;98297.00;5015917;28;20033;-80
2021/11/23 06:14:44;;;;;;;9.48;5.13;;;;;;;2.19;67.76;98302.81;4999220;28;20043;-80
2021/11/23 06:17:10;;;;;;;11.35;5.07;;;;;;;2.43;66.98;98308.84;5032392;28;20385;-80
2021/11/23 06:19:39;;;;;;;11.45;5.28;;;;;;;2.39;67.21;98312.72;4998937;28;20039;-80
2021/11/23 06:22:06;;;;;;;9.13;4.60;;;;;;;2.27;66.75;98314.84;5014226;28;20141;-80
2021/11/23 06:24:32;;;;;;;8.23;3.80;;;;;;;2.19;67.57;98317.41;5032057;28;20182;-80
2021/11/23 06:26:57;;;;;;;5.65;3.63;;;;;;;2.23;68.13;98313.56;5015359;28;20135;-80
2021/11/23 06:29:23;;;;;;;8.73;4.60;;;;;;;1.99;67.77;98309.25;5015452;28;20037;-80
2021/11/23 06:31:48;;;;;;;8.50;3.90;;;;;;;2.35;67.50;98326.88;4998172;28;20025;-79
2021/11/23 06:34:13;;;;;;;6.72;3.72;;;;;;;2.36;66.55;98324.13;4995801;28;20021;-80
2021/11/23 06:36:39;;;;;;;6.78;3.60;;;;;;;2.30;67.47;98322.22;4997182;28;20474;-80
2021/11/23 06:39:06;;;;;;;8.23;4.72;;;;;;;2.42;67.23;98313.19;5013509;28;20033;-80
2021/11/23 06:41:32;;;;;;;9.63;4.72;;;;;;;2.52;66.09;98313.03;5009664;28;20392;-80
2021/11/23 06:44:01;;;;;;;6.63;4.00;;;;;;;2.28;67.17;98319.03;5015888;28;20116;-80
2021/11/23 06:46:27;;;;;;;10.05;5.03;;;;;;;2.41;66.70;98318.50;5016417;28;20497;-79
2021/11/23 06:48:52;;;;;;;14.95;7.30;;;;;;;2.47;66.69;98310.16;4996723;28;20087;-80
2021/11/23 06:51:17;;;;;;;13.85;6.97;;;;;;;2.43;66.64;98319.97;5013379;28;20086;-80
2021/11/23 06:53:43;;;;;;;9.20;5.35;;;;;;;2.41;66.73;98327.00;5015670;28;20116;-80
2021/11/23 06:56:08;;;;;;;12.40;6.32;;;;;;;2.48;66.30;98331.50;4997333;28;20033;-79
2021/11/23 06:58:34;;;;;;;8.85;5.10;;;;;;;2.40;65.95;98330.56;5015849;28;20120;-80
2021/11/23 07:00:59;;;;;;;7.47;4.65;;;;;;;2.53;66.13;98318.97;5015810;28;20064;-80
2021/11/23 07:03:24;;;;;;;6.00;3.47;;;;;;;2.61;65.75;98321.53;4999329;28;20116;-80
2021/11/23 07:05:50;;;;;;;11.32;5.70;;;;;;;2.42;66.48;98328.63;5031644;28;20797;-80
2021/11/23 07:08:16;;;;;;;9.65;4.95;;;;;;;2.42;66.49;98327.84;5014435;28;20028;-80
2021/11/23 07:10:42;;;;;;;8.77;5.57;;;;;;;2.61;66.07;98321.53;5031812;28;20031;-80
2021/11/23 07:13:08;;;;;;;9.68;4.28;;;;;;;2.69;65.46;98316.38;5041350;28;20032;-80
2021/11/23 07:15:33;;;;;;;9.30;4.88;;;;;;;2.63;65.53;98324.72;5019037;28;20029;-80
2021/11/23 07:17:59;;;;;;;8.00;4.22;;;;;;;2.75;65.87;98320.03;5025260;28;20131;-80
2021/11/23 07:20:24;;;;;;;10.02;5.63;;;;;;;2.74;65.50;98326.97;5015241;28;20037;-80
2021/11/23 07:22:50;;;;;;;8.38;5.18;;;;;;;2.80;66.14;98335.78;5015157;28;20520;-80
2021/11/23 07:25:15;;;;;;;8.93;4.90;;;;;;;2.84;65.02;98333.66;5014881;28;20039;-80
2021/11/23 07:27:43;;;;;;;7.43;4.15;;;;;;;2.82;65.28;98331.25;5049123;28;20334;-80
2021/11/23 07:30:09;;;;;;;8.32;5.57;;;;;;;2.75;65.48;98331.13;5015814;28;20025;-80
2021/11/23 07:32:35;;;;;;;6.68;3.88;;;;;;;2.68;65.74;98326.81;5015106;28;20024;-80
2021/11/23 07:35:04;;;;;;;7.72;4.18;;;;;;;2.70;65.30;98330.81;5014890;28;20063;-80
2021/11/23 07:37:36;;;;;;;6.20;3.65;;;;;;;2.68;65.69;98337.88;4998790;28;20129;-80
2021/11/23 07:40:03;;;;;;;5.43;3.38;;;;;;;2.64;65.59;98341.78;5004071;28;20227;-81
2021/11/23 07:42:28;;;;;;;7.60;3.75;;;;;;;2.71;66.08;98334.19;4979669;28;20025;-80
2021/11/23 07:44:53;;;;;;;6.30;3.20;;;;;;;2.81;65.51;98333.03;4992427;28;20033;-80
2021/11/23 07:47:19;;;;;;;4.90;3.03;;;;;;;2.66;65.95;98333.88;5030570;28;20463;-81
2021/11/23 07:49:44;;;;;;;7.13;3.88;;;;;;;2.50;65.87;98345.00;5021528;28;20501;-81
2021/11/23 07:52:14;;;;;;;7.30;3.28;;;;;;;2.60;66.32;98350.75;5017267;28;20270;-81
2021/11/23 07:54:39;;;;;;;4.65;2.60;;;;;;;2.79;65.64;98347.00;5003779;28;20029;-81
2021/11/23 07:57:05;;;;;;;4.78;2.63;;;;;;;2.72;65.32;98346.88;5011982;28;20508;-81
2021/11/23 07:59:30;;;;;;;4.90;2.80;;;;;;;2.79;65.77;98365.03;4994844;28;20025;-81
2021/11/23 08:01:55;;;;;;;4.80;2.65;;;;;;;2.69;65.98;98360.09;4989424;28;20021;-81
2021/11/23 08:04:21;;;;;;;5.07;2.33;;;;;;;2.72;65.54;98366.66;5030148;28;20029;-80
2021/11/23 08:06:46;;;;;;;4.80;2.47;;;;;;;2.76;65.69;98368.75;4999527;28;20029;-81
2021/11/23 08:09:11;;;;;;;4.43;2.50;;;;;;;2.85;65.85;98361.81;5004230;28;20115;-80
2021/11/23 08:11:37;;;;;;;4.55;1.80;;;;;;;2.85;65.49;98372.09;5012309;28;20052;-80
2021/11/23 08:14:02;;;;;;;5.10;2.33;;;;;;;2.94;65.20;98372.88;5026103;28;20028;-80
2021/11/23 08:16:28;;;;;;;5.28;2.83;;;;;;;2.87;65.37;98371.94;5030176;28;20038;-80
2021/11/23 08:18:53;;;;;;;6.07;2.40;;;;;;;2.94;65.06;98368.50;5029454;28;20036;-80
2021/11/23 08:21:18;;;;;;;20.60;7.82;;;;;;;3.04;65.06;98376.06;5008516;28;20032;-82
2021/11/23 08:23:44;;;;;;;15.23;7.32;;;;;;;2.87;64.96;98372.72;5021463;28;20033;-80
2021/11/23 08:26:10;;;;;;;18.50;8.05;;;;;;;2.90;65.62;98381.91;5001974;28;20039;-80
2021/11/23 08:28:37;;;;;;;6.50;2.85;;;;;;;2.96;65.32;98374.28;5035165;28;20416;-80
2021/11/23 08:31:03;;;;;;;17.60;7.63;;;;;;;2.87;65.56;98377.88;5046503;28;20032;-80
2021/11/23 08:33:28;;;;;;;25.10;9.90;;;;;;;2.92;65.54;98379.94;5032358;28;20025;-80
2021/11/23 08:35:54;;;;;;;7.82;3.50;;;;;;;3.16;64.84;98379.06;5001458;28;20017;-79
2021/11/23 08:38:21;;;;;;;5.78;2.78;;;;;;;3.29;64.89;98379.34;5021798;28;20362;-79
2021/11/23 08:40:46;;;;;;;4.90;2.58;;;;;;;3.14;64.92;98379.22;5045841;28;20041;-80
2021/11/23 08:43:12;;;;;;;3.67;2.17;;;;;;;3.36;64.26;98379.47;5017777;28;20172;-80
2021/11/23 08:45:41;;;;;;;4.53;2.05;;;;;;;3.62;63.47;98371.44;4997069;28;20075;-80
2021/11/23 08:48:07;;;;;;;3.70;1.98;;;;;;;3.45;63.37;98378.47;5012555;28;20046;-80
2021/11/23 08:50:33;;;;;;;5.60;2.90;;;;;;;3.50;63.21;98380.53;5028684;28;20033;-79
2021/11/23 08:52:59;;;;;;;4.97;2.40;;;;;;;3.47;63.56;98394.53;5046751;28;20036;-80
2021/11/23 08:55:25;;;;;;;4.63;2.65;;;;;;;3.43;63.77;98377.00;4995600;28;20029;-79
2021/11/23 08:57:51;;;;;;;4.20;2.33;;;;;;;3.46;63.66;98384.41;5028727;28;20477;-80
2021/11/23 09:00:18;;;;;;;5.30;2.45;;;;;;;3.44;63.74;98384.56;5012380;28;20032;-80
2021/11/23 09:02:47;;;;;;;4.53;2.20;;;;;;;3.54;63.83;98382.59;4996540;28;20033;-79
2021/11/23 09:05:13;;;;;;;5.20;2.20;;;;;;;3.59;63.07;98389.00;5027336;28;20029;-79
2021/11/23 09:07:40;;;;;;;3.95;2.50;;;;;;;3.84;62.44;98389.66;5013129;28;20025;-80
2021/11/23 09:10:09;;;;;;;3.75;1.75;;;;;;;4.02;61.95;98397.13;5012709;28;20432;-80
2021/11/23 09:12:34;;;;;;;3.60;1.98;;;;;;;4.03;61.59;98393.59;5013478;28;20064;-80
2021/11/23 09:15:03;;;;;;;3.22;1.70;;;;;;;4.25;61.01;98395.34;4996002;28;20064;-79
2021/11/23 09:17:28;;;;;;;4.32;2.40;;;;;;;4.40;60.64;98382.47;4993940;28;20477;-79
2021/11/23 09:19:54;;;;;;;3.50;1.92;;;;;;;4.51;60.54;98391.59;5014857;28;20452;-79
2021/11/23 09:22:20;;;;;;;8.20;3.33;;;;;;;4.68;60.31;98395.63;5028413;28;20430;-79
2021/11/23 09:24:46;;;;;;;4.05;1.92;;;;;;;4.65;58.97;98393.38;5026484;28;20126;-80
2021/11/23 09:27:11;;;;;;;4.47;1.98;;;;;;;4.81;59.34;98386.47;5031805;28;20039;-79
2021/11/23 09:29:38;;;;;;;4.15;1.75;;;;;;;4.92;59.22;98387.78;5038648;28;20036;-79
2021/11/23 09:32:04;;;;;;;4.05;1.60;;;;;;;4.82;58.39;98394.03;4997718;28;20085;-80
2021/11/23 09:34:30;;;;;;;5.63;2.50;;;;;;;4.97;58.32;98396.63;5011635;28;20025;-79
2021/11/23 09:36:56;;;;;;;2.60;1.65;;;;;;;5.11;57.57;98391.66;5029290;28;20128;-79
2021/11/23 09:39:21;;;;;;;2.40;1.20;;;;;;;5.18;58.09;98398.47;5029088;28;20025;-79
2021/11/23 09:41:47;;;;;;;1.73;1.05;;;;;;;5.24;57.89;98397.78;5011440;28;20021;-79
2021/11/23 09:44:13;;;;;;;2.45;1.23;;;;;;;5.26;57.40;98405.34;4995605;28;20080;-79
2021/11/23 09:46:39;;;;;;;2.47;1.00;;;;;;;5.32;57.38;98404.59;5028877;28;20072;-79
2021/11/23 09:49:06;;;;;;;1.13;0.77;;;;;;;5.22;56.84;98402.28;5012801;28;20377;-79
2021/11/23 09:51:33;;;;;;;1.90;1.25;;;;;;;5.31;56.54;98395.25;5032633;28;20040;-80
2021/11/23 09:54:00;;;;;;;3.47;1.70;;;;;;;5.25;56.77;98389.03;5031645;28;20120;-80
2021/11/23 09:56:27;;;;;;;2.45;1.63;;;;;;;5.48;56.05;98388.09;5011500;28;20037;-80
2021/11/23 09:58:55;;;;;;;2.83;1.08;;;;;;;5.34;55.78;98381.97;5025170;28;20108;-80
2021/11/23 10:01:23;;;;;;;1.73;1.15;;;;;;;5.19;56.19;98382.03;4993417;28;20304;-80
2021/11/23 10:03:49;;;;;;;2.30;0.98;;;;;;;5.13;56.20;98390.47;4992237;28;20444;-80
2021/11/23 10:06:19;;;;;;;2.05;0.70;;;;;;;5.26;55.89;98384.69;5008785;28;20037;-80
2021/11/23 10:08:45;;;;;;;0.75;0.50;;;;;;;5.52;55.42;98376.44;4976451;28;20061;-80
2021/11/23 10:11:12;;;;;;;1.85;1.00;;;;;;;5.53;54.99;98380.59;5014337;28;20030;-81
2021/11/23 10:13:44;;;;;;;1.73;0.60;;;;;;;5.38;55.50;98380.66;5007739;28;20025;-80
2021/11/23 10:16:10;;;;;;;2.17;0.77;;;;;;;5.47;54.37;98372.78;4995157;28;20131;-80
2021/11/23 10:18:36;;;;;;;0.85;0.40;;;;;;;5.70;54.60;98383.78;5011390;28;20388;-80
2021/11/23 10:21:04;;;;;;;1.23;0.90;;;;;;;5.48;54.79;98371.81;5028381;28;20172;-80
2021/11/23 10:23:43;;;;;;;1.27;0.68;;;;;;;5.48;54.47;98376.97;5009002;28;20037;-80
2021/11/23 10:26:15;;;;;;;1.85;0.90;;;;;;;5.48;54.15;98377.78;5028200;28;20135;-81
2021/11/23 10:28:43;;;;;;;1.80;0.50;;;;;;;5.67;53.37;98373.81;5011523;28;20076;-80
2021/11/23 10:31:10;;;;;;;2.28;0.40;;;;;;;5.89;54.00;98381.59;4995392;28;20033;-79
2021/11/23 10:33:38;;;;;;;2.08;0.77;;;;;;;5.93;53.15;98370.69;5028183;28;20029;-80
2021/11/23 10:36:05;;;;;;;3.50;0.57;;;;;;;6.06;52.41;98375.22;5011891;28;20040;-80
2021/11/23 10:38:31;;;;;;;0.75;0.40;;;;;;;5.87;52.34;98379.19;5042095;28;20115;-80
2021/11/23 10:40:56;;;;;;;1.20;0.80;;;;;;;6.22;52.15;98373.34;5011085;28;20147;-80
2021/11/23 10:43:23;;;;;;;1.27;0.32;;;;;;;6.18;50.88;98372.94;5048491;28;20037;-81
2021/11/23 10:45:51;;;;;;;1.20;0.30;;;;;;;6.39;52.01;98374.69;4997146;28;20119;-80
2021/11/23 10:48:20;;;;;;;0.98;0.50;;;;;;;6.45;50.35;98363.59;5015414;28;20168;-80
2021/11/23 10:51:06;;;;;;;1.15;0.50;;;;;;;6.09;50.74;98371.47;4998730;28;20056;-80
2021/11/23 10:53:33;;;;;;;0.98;0.40;;;;;;;6.54;50.90;98361.66;5031326;28;20500;-81
2021/11/23 10:56:07;;;;;;;2.67;0.50;;;;;;;6.37;49.91;98355.97;5018061;28;20245;-81
2021/11/23 10:58:32;;;;;;;1.00;0.60;;;;;;;6.62;49.80;98353.75;4995648;28;20033;-81
2021/11/23 11:00:59;;;;;;;2.33;0.70;;;;;;;6.89;49.60;98356.53;4979503;28;20045;-81
2021/11/23 11:03:29;;;;;;;2.15;0.85;;;;;;;6.71;49.23;98357.00;4995198;28;20076;-81
2021/11/23 11:05:54;;;;;;;0.98;0.50;;;;;;;6.73;47.83;98355.84;5022110;28;20041;-80
2021/11/23 11:08:22;;;;;;;1.15;0.35;;;;;;;6.82;47.95;98358.25;5037175;28;20056;-81
2021/11/23 11:10:48;;;;;;;2.20;0.60;;;;;;;7.11;48.13;98352.84;4995205;28;20037;-80
2021/11/23 11:13:17;;;;;;;0.98;0.40;;;;;;;6.98;46.99;98350.19;5019318;28;20139;-80
2021/11/23 11:15:52;;;;;;;0.52;0.20;;;;;;;6.89;47.68;98344.38;4978493;28;20036;-80
2021/11/23 11:18:19;;;;;;;0.65;0.30;;;;;;;7.08;48.20;98342.06;4993617;28;20016;-82
2021/11/23 11:20:50;;;;;;;1.00;0.60;;;;;;;7.00;47.55;98340.44;5049237;28;20037;-81
2021/11/23 11:23:29;;;;;;;1.17;0.20;;;;;;;6.74;46.57;98347.06;5011404;28;20025;-80
2021/11/23 11:26:01;;;;;;;2.13;0.30;;;;;;;7.26;46.51;98337.13;4994570;28;20046;-81
2021/11/23 11:28:47;;;;;;;1.55;0.73;;;;;;;7.27;46.55;98336.16;4995960;28;20038;-80
2021/11/23 11:31:39;;;;;;;1.17;0.25;;;;;;;7.01;47.02;98342.03;5054272;28;20059;-81
2021/11/23 11:34:31;;;;;;;1.70;0.40;;;;;;;7.20;46.93;98340.53;5010354;28;20024;-81
2021/11/23 11:37:00;;;;;;;0.75;0.30;;;;;;;7.45;47.83;98337.41;5013605;28;20079;-80
2021/11/23 11:39:41;;;;;;;1.77;0.77;;;;;;;7.55;47.49;98335.25;5029512;28;20033;-81